Wetterstation Vordersexau
Wetterdaten: Woche 25.06.12 - 01.07.12 (KW26)
Datum Zeit Temp. A. Feuchte A. Luftdruck Regen Wind Richtung Taupunkt Windchill Windben
25.06.2012 00:00 16,1 C 83 % 1014,9 hPa 0,4 l/m 0,0 km/h SO 13,2 C 16,1 C 0,0 km/h
25.06.2012 01:00 16,3 C 83 % 1014,4 hPa 0,0 l/m 6,5 km/h S-SW 13,4 C 16,3 C 3,6 km/h
25.06.2012 02:00 15,9 C 81 % 1014,0 hPa 1,1 l/m 3,2 km/h SW 12,6 C 15,9 C 1,8 km/h
25.06.2012 03:00 15,9 C 79 % 1013,7 hPa 0,7 l/m 13,6 km/h W-NW 12,3 C 12,7 C 7,6 km/h
25.06.2012 04:00 14,9 C 80 % 1013,8 hPa 2,1 l/m 0,0 km/h W-NW 11,5 C 14,9 C 0,0 km/h
25.06.2012 05:00 13,6 C 80 % 1014,5 hPa 2,8 l/m 1,9 km/h O-SO 10,2 C 13,6 C 1,1 km/h
25.06.2012 06:00 13,6 C 80 % 1015,0 hPa 1,8 l/m 0,0 km/h O-SO 10,2 C 13,6 C 0,0 km/h
25.06.2012 07:00 13,9 C 79 % 1015,6 hPa 0,7 l/m 0,0 km/h N-NO 10,3 C 13,9 C 0,0 km/h
25.06.2012 08:00 13,6 C 82 % 1016,4 hPa 0,4 l/m 0,0 km/h N-NO 10,6 C 13,6 C 0,0 km/h
25.06.2012 09:00 15,4 C 84 % 1016,7 hPa 0,0 l/m 0,0 km/h SO 12,7 C 15,4 C 0,0 km/h
25.06.2012 10:00 20,7 C 72 % 1016,6 hPa 0,0 l/m 1,3 km/h N-NO 15,5 C 20,7 C 0,7 km/h
25.06.2012 11:00 20,2 C 67 % 1017,3 hPa 0,0 l/m 0,0 km/h W 13,9 C 20,2 C 0,0 km/h
25.06.2012 12:00 22,9 C 57 % 1017,0 hPa 0,0 l/m 1,9 km/h W 13,9 C 22,9 C 1,1 km/h
25.06.2012 13:00 23,6 C 54 % 1016,6 hPa 0,0 l/m 13,6 km/h W 13,7 C 21,9 C 7,6 km/h
25.06.2012 14:00 24,7 C 50 % 1016,3 hPa 0,0 l/m 5,2 km/h W-NW 13,6 C 24,7 C 2,9 km/h
25.06.2012 15:00 26,3 C 46 % 1016,3 hPa 0,0 l/m 5,2 km/h NW 13,7 C 26,3 C 2,9 km/h
25.06.2012 16:00 28,4 C 37 % 1016,3 hPa 0,0 l/m 13,0 km/h N-NO 12,3 C 27,6 C 7,2 km/h
25.06.2012 17:00 30,9 C 32 % 1016,2 hPa 0,0 l/m 8,4 km/h N-NW 12,3 C 30,8 C 4,7 km/h
25.06.2012 18:00 27,2 C 34 % 1016,3 hPa 0,0 l/m 1,9 km/h N-NO 10,0 C 27,2 C 1,1 km/h
25.06.2012 19:00 24,8 C 41 % 1016,7 hPa 0,0 l/m 8,4 km/h N-NO 10,6 C 24,3 C 4,7 km/h
25.06.2012 20:00 19,9 C 48 % 1017,3 hPa 0,0 l/m 0,0 km/h NO 8,6 C 19,9 C 0,0 km/h
25.06.2012 21:00 16,8 C 60 % 1017,9 hPa 0,0 l/m 0,0 km/h O-NO 9,0 C 16,8 C 0,0 km/h
25.06.2012 22:00 13,9 C 73 % 1018,8 hPa 0,0 l/m 0,0 km/h O-SO 9,1 C 13,9 C 0,0 km/h
25.06.2012 23:00 13,1 C 76 % 1018,7 hPa 0,0 l/m 0,0 km/h O-SO 9,0 C 13,1 C 0,0 km/h
26.06.2012 00:00 11,5 C 80 % 1019,4 hPa 0,0 l/m 0,0 km/h O-NO 8,2 C 11,5 C 0,0 km/h
26.06.2012 01:00 10,8 C 82 % 1019,2 hPa 0,0 l/m 0,0 km/h NO 7,9 C 10,8 C 0,0 km/h
26.06.2012 02:00 10,4 C 83 % 1019,3 hPa 0,0 l/m 0,0 km/h O-SO 7,6 C 10,4 C 0,0 km/h
26.06.2012 03:00 9,8 C 84 % 1019,2 hPa 0,0 l/m 0,0 km/h O-NO 7,2 C 9,8 C 0,0 km/h
26.06.2012 04:00 9,4 C 84 % 1019,1 hPa 0,0 l/m 0,0 km/h O-NO 6,8 C 9,4 C 0,0 km/h
26.06.2012 05:00 9,0 C 84 % 1018,8 hPa 0,0 l/m 0,0 km/h O-SO 6,4 C 9,0 C 0,0 km/h
26.06.2012 06:00 9,9 C 83 % 1019,4 hPa 0,0 l/m 0,0 km/h SO 7,2 C 9,9 C 0,0 km/h
26.06.2012 07:00 12,6 C 84 % 1019,9 hPa 0,0 l/m 8,4 km/h SO 10,0 C 11,3 C 4,7 km/h
26.06.2012 08:00 16,2 C 78 % 1020,2 hPa 0,0 l/m 0,0 km/h NO 12,4 C 16,2 C 0,0 km/h
26.06.2012 09:00 19,6 C 67 % 1020,4 hPa 0,0 l/m 0,0 km/h SO 13,3 C 19,6 C 0,0 km/h
26.06.2012 10:00 21,4 C 58 % 1020,2 hPa 0,0 l/m 0,0 km/h N-NO 12,8 C 21,4 C 0,0 km/h
26.06.2012 11:00 25,6 C 46 % 1020,3 hPa 0,0 l/m 0,0 km/h O-SO 13,1 C 25,6 C 0,0 km/h
26.06.2012 12:00 25,6 C 43 % 1020,3 hPa 0,0 l/m 3,2 km/h S-SW 12,1 C 25,6 C 1,8 km/h
26.06.2012 13:00 27,1 C 43 % 1020,2 hPa 0,0 l/m 0,6 km/h O 13,4 C 27,1 C 0,4 km/h
26.06.2012 14:00 26,9 C 43 % 1019,7 hPa 0,0 l/m 0,0 km/h W 13,2 C 26,9 C 0,0 km/h
26.06.2012 15:00 29,5 C 39 % 1019,6 hPa 0,0 l/m 9,7 km/h S-SW 14,1 C 29,2 C 5,4 km/h
26.06.2012 16:00 26,6 C 46 % 1019,3 hPa 0,0 l/m 0,0 km/h S 14,0 C 26,6 C 0,0 km/h
26.06.2012 17:00 31,9 C 39 % 1019,2 hPa 0,0 l/m 0,0 km/h W 16,2 C 31,9 C 0,0 km/h
26.06.2012 18:00 26,9 C 45 % 1019,3 hPa 0,0 l/m 0,0 km/h W-NW 13,9 C 26,9 C 0,0 km/h
26.06.2012 19:00 23,6 C 56 % 1019,5 hPa 0,0 l/m 5,8 km/h W 14,3 C 23,6 C 3,2 km/h
26.06.2012 20:00 22,1 C 62 % 1019,5 hPa 0,0 l/m 0,0 km/h W 14,5 C 22,1 C 0,0 km/h
26.06.2012 21:00 20,6 C 69 % 1019,8 hPa 0,0 l/m 0,0 km/h W-NW 14,7 C 20,6 C 0,0 km/h
26.06.2012 22:00 19,3 C 75 % 1019,9 hPa 0,0 l/m 0,0 km/h SO 14,8 C 19,3 C 0,0 km/h
26.06.2012 23:00 16,9 C 79 % 1020,1 hPa 0,0 l/m 0,0 km/h O 13,2 C 16,9 C 0,0 km/h
27.06.2012 00:00 15,9 C 82 % 1020,1 hPa 0,0 l/m 0,0 km/h O 12,8 C 15,9 C 0,0 km/h
27.06.2012 01:00 15,2 C 83 % 1020,4 hPa 0,0 l/m 0,0 km/h SO 12,3 C 15,2 C 0,0 km/h
27.06.2012 02:00 15,9 C 83 % 1020,3 hPa 0,0 l/m 0,0 km/h O-SO 13,0 C 15,9 C 0,0 km/h
27.06.2012 03:00 16,1 C 83 % 1020,1 hPa 0,0 l/m 0,0 km/h SO 13,2 C 16,1 C 0,0 km/h
27.06.2012 04:00 16,3 C 83 % 1019,9 hPa 0,0 l/m 0,0 km/h SO 13,4 C 16,3 C 0,0 km/h
27.06.2012 05:00 15,8 C 83 % 1019,9 hPa 0,0 l/m 1,9 km/h O-SO 12,9 C 15,8 C 1,1 km/h
27.06.2012 06:00 16,2 C 83 % 1019,9 hPa 0,0 l/m 0,0 km/h SO 13,3 C 16,2 C 0,0 km/h
27.06.2012 07:00 17,0 C 83 % 1020,0 hPa 0,0 l/m 0,0 km/h SO 14,1 C 17,0 C 0,0 km/h
27.06.2012 08:00 18,8 C 82 % 1019,8 hPa 0,0 l/m 0,0 km/h NO 15,7 C 18,8 C 0,0 km/h
27.06.2012 09:00 25,8 C 70 % 1019,6 hPa 0,0 l/m 0,0 km/h W 19,9 C 25,8 C 0,0 km/h
27.06.2012 10:00 29,7 C 54 % 1019,6 hPa 0,0 l/m 0,0 km/h W-SW 19,4 C 29,7 C 0,0 km/h
27.06.2012 11:00 31,9 C 47 % 1018,7 hPa 0,0 l/m 7,1 km/h W-SW 19,2 C 31,9 C 4,0 km/h
27.06.2012 12:00 28,9 C 50 % 1018,5 hPa 0,0 l/m 11,0 km/h S-SO 17,4 C 28,4 C 6,1 km/h
27.06.2012 13:00 27,9 C 50 % 1018,2 hPa 0,0 l/m 0,0 km/h W 16,5 C 27,9 C 0,0 km/h
27.06.2012 14:00 29,4 C 49 % 1017,6 hPa 0,0 l/m 2,6 km/h NW 17,5 C 29,4 C 1,4 km/h
27.06.2012 15:00 31,2 C 45 % 1017,1 hPa 0,0 l/m 0,0 km/h S-SW 17,8 C 31,2 C 0,0 km/h
27.06.2012 16:00 33,4 C 42 % 1016,6 hPa 0,0 l/m 16,2 km/h N-NO 18,7 C 33,4 C 9,0 km/h
27.06.2012 17:00 35,5 C 34 % 1015,9 hPa 0,0 l/m 9,7 km/h N-NO 17,2 C 35,5 C 5,4 km/h
27.06.2012 18:00 34,9 C 35 % 1015,5 hPa 0,0 l/m 0,0 km/h N-NO 17,1 C 34,9 C 0,0 km/h
27.06.2012 19:00 29,6 C 44 % 1015,1 hPa 0,0 l/m 0,0 km/h N-NO 16,0 C 29,6 C 0,0 km/h
27.06.2012 20:00 25,4 C 58 % 1015,1 hPa 0,0 l/m 0,0 km/h O-NO 16,5 C 25,4 C 0,0 km/h
27.06.2012 21:00 22,4 C 69 % 1014,8 hPa 0,0 l/m 0,0 km/h O-NO 16,4 C 22,4 C 0,0 km/h
27.06.2012 22:00 19,9 C 74 % 1015,0 hPa 0,0 l/m 0,0 km/h O-NO 15,1 C 19,9 C 0,0 km/h
27.06.2012 23:00 18,6 C 80 % 1014,5 hPa 0,0 l/m 0,0 km/h SO 15,1 C 18,6 C 0,0 km/h
28.06.2012 00:00 18,4 C 81 % 1014,0 hPa 0,0 l/m 0,0 km/h O-SO 15,1 C 18,4 C 0,0 km/h
28.06.2012 01:00 17,7 C 81 % 1013,4 hPa 0,0 l/m 0,0 km/h SO 14,4 C 17,7 C 0,0 km/h
28.06.2012 02:00 17,0 C 82 % 1012,9 hPa 0,0 l/m 0,0 km/h O 13,9 C 17,0 C 0,0 km/h
28.06.2012 03:00 16,3 C 83 % 1012,7 hPa 0,0 l/m 0,0 km/h O-NO 13,4 C 16,3 C 0,0 km/h
28.06.2012 04:00 15,4 C 83 % 1012,0 hPa 0,0 l/m 0,0 km/h O-NO 12,5 C 15,4 C 0,0 km/h
28.06.2012 05:00 14,8 C 83 % 1012,2 hPa 0,0 l/m 0,0 km/h O-SO 11,9 C 14,8 C 0,0 km/h
28.06.2012 06:00 14,9 C 81 % 1012,6 hPa 0,0 l/m 0,0 km/h O-NO 11,7 C 14,9 C 0,0 km/h
28.06.2012 07:00 17,8 C 80 % 1011,8 hPa 0,0 l/m 0,0 km/h NW 14,3 C 17,8 C 0,0 km/h
28.06.2012 08:00 25,6 C 68 % 1011,6 hPa 0,0 l/m 0,0 km/h N-NW 19,2 C 25,6 C 0,0 km/h
28.06.2012 09:00 28,5 C 54 % 1011,3 hPa 0,0 l/m 0,0 km/h SW 18,3 C 28,5 C 0,0 km/h
28.06.2012 10:00 30,3 C 52 % 1010,4 hPa 0,0 l/m 0,0 km/h W-SW 19,3 C 30,3 C 0,0 km/h
28.06.2012 11:00 31,2 C 51 % 1010,1 hPa 0,0 l/m 0,0 km/h W-NW 19,8 C 31,2 C 0,0 km/h
28.06.2012 12:00 30,8 C 53 % 1009,6 hPa 0,0 l/m 12,3 km/h W 20,1 C 30,5 C 6,8 km/h
28.06.2012 13:00 33,4 C 47 % 1009,0 hPa 0,0 l/m 4,5 km/h W-SW 20,5 C 33,4 C 2,5 km/h
28.06.2012 14:00 34,6 C 46 % 1008,4 hPa 0,0 l/m 1,9 km/h W 21,3 C 34,6 C 1,1 km/h
28.06.2012 15:00 33,4 C 41 % 1008,4 hPa 0,0 l/m 0,0 km/h W-SW 18,3 C 33,4 C 0,0 km/h
28.06.2012 16:00 30,6 C 51 % 1008,4 hPa 0,0 l/m 0,0 km/h SO 19,3 C 30,6 C 0,0 km/h
28.06.2012 17:00 31,4 C 52 % 1007,8 hPa 0,0 l/m 0,0 km/h S-SO 20,3 C 31,4 C 0,0 km/h
28.06.2012 18:00 34,9 C 47 % 1007,4 hPa 0,0 l/m 5,2 km/h S-SO 21,9 C 34,9 C 2,9 km/h
28.06.2012 19:00 34,3 C 45 % 1007,0 hPa 0,0 l/m 0,0 km/h SW 20,6 C 34,3 C 0,0 km/h
28.06.2012 20:00 29,5 C 59 % 1007,1 hPa 0,0 l/m 0,0 km/h NO 20,6 C 29,5 C 0,0 km/h
28.06.2012 21:00 25,4 C 71 % 1007,5 hPa 0,0 l/m 0,0 km/h SO 19,7 C 25,4 C 0,0 km/h
28.06.2012 22:00 22,9 C 76 % 1008,0 hPa 0,0 l/m 0,0 km/h NO 18,4 C 22,9 C 0,0 km/h
28.06.2012 23:00 21,6 C 78 % 1007,7 hPa 0,0 l/m 0,0 km/h SO 17,6 C 21,6 C 0,0 km/h
29.06.2012 00:00 21,1 C 79 % 1007,8 hPa 0,0 l/m 0,0 km/h SO 17,3 C 21,1 C 0,0 km/h
29.06.2012 01:00 20,7 C 81 % 1008,6 hPa 0,0 l/m 0,0 km/h S-SO 17,3 C 20,7 C 0,0 km/h
29.06.2012 02:00 20,3 C 82 % 1009,2 hPa 0,0 l/m 0,0 km/h O 17,1 C 20,3 C 0,0 km/h
29.06.2012 03:00 19,6 C 82 % 1008,8 hPa 0,0 l/m 0,0 km/h NO 16,4 C 19,6 C 0,0 km/h
29.06.2012 04:00 19,9 C 82 % 1009,0 hPa 0,0 l/m 0,0 km/h S-SO 16,7 C 19,9 C 0,0 km/h
29.06.2012 05:00 19,7 C 82 % 1008,9 hPa 0,0 l/m 9,1 km/h SO 16,5 C 18,6 C 5,0 km/h
29.06.2012 06:00 19,6 C 81 % 1009,6 hPa 0,0 l/m 12,3 km/h N-NO 16,2 C 17,5 C 6,8 km/h
29.06.2012 07:00 20,3 C 82 % 1009,3 hPa 0,0 l/m 0,6 km/h N-NO 17,1 C 20,3 C 0,4 km/h
29.06.2012 08:00 19,1 C 80 % 1008,0 hPa 2,8 l/m 5,8 km/h O-NO 15,6 C 19,1 C 3,2 km/h
29.06.2012 09:00 20,3 C 80 % 1009,2 hPa 1,1 l/m 0,0 km/h N-NO 16,7 C 20,3 C 0,0 km/h
29.06.2012 10:00 28,7 C 69 % 1009,1 hPa 0,0 l/m 5,8 km/h O-SO 22,4 C 28,7 C 3,2 km/h
29.06.2012 11:00 30,1 C 65 % 1008,3 hPa 0,0 l/m 11,7 km/h NW 22,8 C 29,7 C 6,5 km/h
29.06.2012 12:00 32,6 C 48 % 1008,4 hPa 0,0 l/m 5,2 km/h N-NO 20,1 C 32,6 C 2,9 km/h
29.06.2012 13:00 32,6 C 48 % 1007,7 hPa 0,0 l/m 12,3 km/h NW 20,1 C 32,5 C 6,8 km/h
29.06.2012 14:00 33,4 C 50 % 1007,8 hPa 0,0 l/m 0,0 km/h W 21,5 C 33,4 C 0,0 km/h
29.06.2012 15:00 34,4 C 49 % 1007,6 hPa 0,0 l/m 5,2 km/h W-SW 22,1 C 34,4 C 2,9 km/h
29.06.2012 16:00 38,6 C 40 % 1007,3 hPa 0,0 l/m 1,3 km/h W 22,5 C 38,6 C 0,7 km/h
29.06.2012 17:00 39,0 C 40 % 1007,3 hPa 0,0 l/m 8,4 km/h W-SW 22,9 C 39,0 C 4,7 km/h
29.06.2012 18:00 33,9 C 44 % 1007,8 hPa 0,0 l/m 17,5 km/h W-SW 19,9 C 33,9 C 9,7 km/h
29.06.2012 19:00 31,4 C 45 % 1008,0 hPa 0,0 l/m 9,1 km/h W 18,0 C 31,3 C 5,0 km/h
29.06.2012 20:00 28,3 C 57 % 1008,2 hPa 0,0 l/m 0,0 km/h NO 18,9 C 28,3 C 0,0 km/h
29.06.2012 21:00 24,9 C 66 % 1008,5 hPa 0,0 l/m 0,0 km/h O-NO 18,1 C 24,9 C 0,0 km/h
29.06.2012 22:00 22,4 C 74 % 1009,2 hPa 0,0 l/m 0,0 km/h O-SO 17,5 C 22,4 C 0,0 km/h
29.06.2012 23:00 20,4 C 79 % 1009,5 hPa 0,0 l/m 0,0 km/h SO 16,6 C 20,4 C 0,0 km/h
30.06.2012 00:00 19,8 C 81 % 1010,2 hPa 0,0 l/m 0,0 km/h O-SO 16,4 C 19,8 C 0,0 km/h
30.06.2012 01:00 19,9 C 82 % 1011,0 hPa 0,0 l/m 0,0 km/h O-SO 16,7 C 19,9 C 0,0 km/h
30.06.2012 02:00 19,0 C 82 % 1011,6 hPa 0,0 l/m 0,0 km/h SO 15,9 C 19,0 C 0,0 km/h
30.06.2012 03:00 18,6 C 82 % 1011,4 hPa 0,0 l/m 0,0 km/h O-SO 15,5 C 18,6 C 0,0 km/h
30.06.2012 04:00 19,4 C 83 % 1011,3 hPa 0,0 l/m 0,0 km/h SO 16,4 C 19,4 C 0,0 km/h
30.06.2012 05:00 18,9 C 83 % 1011,4 hPa 0,0 l/m 16,2 km/h NW 15,9 C 15,6 C 9,0 km/h
30.06.2012 06:00 18,8 C 83 % 1011,9 hPa 0,0 l/m 0,0 km/h W-SW 15,8 C 18,8 C 0,0 km/h
30.06.2012 07:00 19,5 C 82 % 1012,0 hPa 0,0 l/m 0,0 km/h W-NW 16,3 C 19,5 C 0,0 km/h
30.06.2012 08:00 24,7 C 73 % 1011,9 hPa 0,0 l/m 0,0 km/h W-SW 19,5 C 24,7 C 0,0 km/h
30.06.2012 09:00 28,8 C 61 % 1011,6 hPa 0,0 l/m 0,0 km/h SW 20,5 C 28,8 C 0,0 km/h
30.06.2012 10:00 30,3 C 55 % 1011,7 hPa 0,0 l/m 7,8 km/h NW 20,2 C 30,2 C 4,3 km/h
30.06.2012 11:00 31,3 C 53 % 1011,3 hPa 0,0 l/m 0,0 km/h W 20,5 C 31,3 C 0,0 km/h
30.06.2012 12:00 30,4 C 57 % 1011,0 hPa 0,0 l/m 0,6 km/h S 20,9 C 30,4 C 0,4 km/h
30.06.2012 13:00 31,9 C 55 % 1010,9 hPa 0,0 l/m 8,4 km/h S-SO 21,7 C 31,8 C 4,7 km/h
30.06.2012 14:00 32,4 C 54 % 1010,5 hPa 0,0 l/m 0,0 km/h SW 21,9 C 32,4 C 0,0 km/h
30.06.2012 15:00 34,3 C 48 % 1010,4 hPa 0,0 l/m 0,0 km/h S-SW 21,7 C 34,3 C 0,0 km/h
30.06.2012 16:00 37,5 C 39 % 1009,6 hPa 0,0 l/m 0,0 km/h W-SW 21,1 C 37,5 C 0,0 km/h
30.06.2012 17:00 38,4 C 36 % 1009,1 hPa 0,0 l/m 0,0 km/h W 20,6 C 38,4 C 0,0 km/h
30.06.2012 18:00 34,4 C 39 % 1008,8 hPa 0,0 l/m 2,6 km/h O-NO 18,4 C 34,4 C 1,4 km/h
30.06.2012 19:00 31,8 C 51 % 1008,3 hPa 0,0 l/m 0,0 km/h N-NO 20,4 C 31,8 C 0,0 km/h
30.06.2012 20:00 27,9 C 61 % 1007,5 hPa 0,0 l/m 0,0 km/h NO 19,7 C 27,9 C 0,0 km/h
30.06.2012 21:00 23,9 C 71 % 1006,8 hPa 0,0 l/m 0,0 km/h N 18,3 C 23,9 C 0,0 km/h
30.06.2012 22:00 23,6 C 75 % 1009,4 hPa 0,0 l/m 20,1 km/h N-NO 18,9 C 20,8 C 11,2 km/h
30.06.2012 23:00 19,8 C 74 % 1011,2 hPa 0,0 l/m 0,0 km/h N-NO 15,0 C 19,8 C 0,0 km/h
01.07.2012 00:00 17,6 C 82 % 1009,9 hPa 4,6 l/m 7,8 km/h NO 14,5 C 16,9 C 4,3 km/h
01.07.2012 01:00 17,4 C 82 % 1011,3 hPa 0,0 l/m 0,0 km/h SO 14,3 C 17,4 C 0,0 km/h
01.07.2012 02:00 16,8 C 81 % 1013,2 hPa 0,0 l/m 0,0 km/h NO 13,5 C 16,8 C 0,0 km/h
01.07.2012 03:00 16,4 C 81 % 1013,3 hPa 0,0 l/m 0,0 km/h N-NO 13,1 C 16,4 C 0,0 km/h
01.07.2012 04:00 16,5 C 79 % 1013,7 hPa 0,0 l/m 0,0 km/h O-SO 12,8 C 16,5 C 0,0 km/h
01.07.2012 05:00 16,5 C 78 % 1013,3 hPa 0,0 l/m 0,0 km/h NO 12,6 C 16,5 C 0,0 km/h
01.07.2012 06:00 16,9 C 77 % 1013,5 hPa 0,0 l/m 0,0 km/h NW 12,8 C 16,9 C 0,0 km/h
01.07.2012 07:00 17,6 C 75 % 1013,8 hPa 0,4 l/m 40,8 km/h W-NW 13,1 C 10,1 C 22,7 km/h
01.07.2012 08:00 17,6 C 73 % 1015,4 hPa 0,4 l/m 3,2 km/h W-NW 12,7 C 17,6 C 1,8 km/h
01.07.2012 09:00 18,5 C 79 % 1016,1 hPa 0,7 l/m 9,1 km/h NW 14,8 C 17,3 C 5,0 km/h
01.07.2012 10:00 17,5 C 79 % 1016,4 hPa 1,8 l/m 31,1 km/h SO 13,8 C 11,0 C 17,3 km/h
01.07.2012 11:00 18,6 C 83 % 1016,8 hPa 0,7 l/m 37,6 km/h S-SO 15,7 C 11,9 C 20,9 km/h
01.07.2012 12:00 19,6 C 81 % 1016,3 hPa 0,4 l/m 49,9 km/h W-NW 16,2 C 12,4 C 27,7 km/h
01.07.2012 13:00 20,5 C 81 % 1017,1 hPa 0,4 l/m 53,1 km/h W-NW 17,1 C 13,7 C 29,5 km/h
01.07.2012 14:00 19,8 C 82 % 1016,4 hPa 0,4 l/m 34,3 km/h W-NW 16,6 C 14,0 C 19,1 km/h
01.07.2012 15:00 18,4 C 83 % 1016,7 hPa 0,0 l/m 0,0 km/h NW 15,5 C 18,4 C 0,0 km/h
01.07.2012 16:00 17,1 C 82 % 1018,1 hPa 0,0 l/m 39,5 km/h W 14,0 C 9,5 C 22,0 km/h
01.07.2012 17:00 17,5 C 82 % 1018,3 hPa 0,7 l/m 1,3 km/h W-SW 14,4 C 17,5 C 0,7 km/h
01.07.2012 18:00 17,8 C 83 % 1018,6 hPa 0,0 l/m 33,0 km/h S 14,9 C 11,2 C 18,4 km/h
01.07.2012 19:00 17,1 C 82 % 1019,3 hPa 0,0 l/m 49,9 km/h W-NW 14,0 C 8,6 C 27,7 km/h
01.07.2012 20:00 16,6 C 81 % 1019,1 hPa 0,7 l/m 29,2 km/h W-SW 13,3 C 10,1 C 16,2 km/h
01.07.2012 21:00 16,1 C 80 % 1018,9 hPa 0,4 l/m 52,5 km/h NW 12,6 C 6,9 C 29,2 km/h
01.07.2012 22:00 15,9 C 78 % 1019,0 hPa 0,0 l/m 31,8 km/h N-NO 12,1 C 8,7 C 17,6 km/h
01.07.2012 23:00 15,3 C 78 % 1017,8 hPa 0,0 l/m 0,0 km/h O-NO 11,5 C 15,3 C 0,0 km/h
Min-Datum _ 26.06.12 25.06.12 30.06.12 - 25.06.12 - 26.06.12 01.07.12 25.06.12
_ Min-Zeit 05:19 17:19 21:19 - 00:19 - 05:19 21:19 00:19
Minimum _ 9,0 C 32 % 1006,8 hPa - 0,0 km/h - 6,4 C 6,9 C 0,0 km/h
Max-Datum _ 29.06.12 25.06.12 26.06.12 01.07.12 01.07.12 - 29.06.12 29.06.12 01.07.12
_ Max-Zeit 17:19 09:19 09:19 00:19 13:19 - 17:19 17:19 13:19
Maximum _ 39,0 C 84 % 1020,4 hPa 4,6 l/m 53,1 km/h
W-NW
- 22,9 C 39,0 C 29,5 km/h
W-NW
Durchschnitt _ 22,6 C 67 % 1014,1 hPa #25,3 l/m 5,0 km/h SO 15,5 C 21,9 C 2,8 km/h
www.sexauwetter.de